Time;durP1;ratioP1;P1;durP2;ratioP2;P2;SDS_P1;SDS_P2;PMS_P1;PMS_P2;Temp;Humidity;BMP_temperature;BMP_pressure;BME280_temperature;BME280_humidity;BME280_pressure;Samples;Min_cycle;Max_cycle;Signal;HPM_P1;HPM_P2
2021/03/22 00:00:19;;;;;;;15.02;2.65;;;17.60;46.90;;;;;;4986324;28;20156;-83
2021/03/22 00:02:45;;;;;;;19.83;2.53;;;17.60;46.80;;;;;;4986385;28;20266;-82
2021/03/22 00:05:12;;;;;;;13.65;2.30;;;17.60;46.70;;;;;;4986277;28;20302;-82
2021/03/22 00:07:38;;;;;;;13.15;2.22;;;17.60;46.80;;;;;;4985836;28;20156;-83
2021/03/22 00:10:05;;;;;;;11.50;2.08;;;17.60;46.80;;;;;;5020357;28;20190;-83
2021/03/22 00:12:31;;;;;;;15.48;2.08;;;17.60;46.70;;;;;;4986139;28;20288;-82
2021/03/22 00:14:57;;;;;;;12.48;2.28;;;17.60;46.80;;;;;;4985406;28;20169;-83
2021/03/22 00:17:22;;;;;;;13.55;2.28;;;17.60;46.70;;;;;;4985127;28;20263;-83
2021/03/22 00:19:50;;;;;;;16.80;2.95;;;17.60;46.80;;;;;;4985665;28;20240;-82
2021/03/22 00:22:18;;;;;;;17.27;2.53;;;17.60;46.70;;;;;;4985688;28;20159;-82
2021/03/22 00:24:43;;;;;;;10.88;2.38;;;17.60;46.60;;;;;;5001554;28;20152;-83
2021/03/22 00:27:10;;;;;;;10.38;2.30;;;17.60;46.70;;;;;;5001881;28;20238;-82
2021/03/22 00:29:37;;;;;;;8.00;1.80;;;17.60;46.60;;;;;;5002147;28;20198;-84
2021/03/22 00:32:05;;;;;;;12.57;2.20;;;17.60;46.70;;;;;;4985311;28;20286;-83
2021/03/22 00:34:31;;;;;;;10.05;2.30;;;17.60;46.80;;;;;;4985370;28;20176;-83
2021/03/22 00:36:57;;;;;;;13.23;2.42;;;17.50;46.90;;;;;;4985729;28;20156;-83
2021/03/22 00:39:23;;;;;;;14.23;2.30;;;17.50;47.00;;;;;;5001938;28;20195;-82
2021/03/22 00:41:49;;;;;;;10.02;2.10;;;17.50;47.00;;;;;;5001364;28;20168;-83
2021/03/22 00:44:15;;;;;;;17.50;2.38;;;17.50;46.90;;;;;;5001749;28;20164;-83
2021/03/22 00:46:41;;;;;;;12.95;2.33;;;17.50;46.90;;;;;;4969793;28;20291;-83
2021/03/22 00:49:07;;;;;;;18.67;2.40;;;17.50;46.80;;;;;;5001666;28;20644;-82
2021/03/22 00:51:34;;;;;;;11.70;2.08;;;17.50;46.90;;;;;;4984861;28;20720;-83
2021/03/22 00:54:00;;;;;;;7.80;2.20;;;17.50;46.90;;;;;;4985500;28;20179;-82
2021/03/22 00:56:25;;;;;;;9.70;2.17;;;17.50;46.80;;;;;;5019130;28;20174;-83
2021/03/22 00:59:00;;;;;;;13.18;2.45;;;17.50;46.90;;;;;;4985382;28;20183;-82
2021/03/22 01:01:25;;;;;;;12.65;2.03;;;17.50;46.80;;;;;;5019857;28;20166;-82
2021/03/22 01:03:51;;;;;;;15.60;2.38;;;17.50;46.90;;;;;;4986132;28;20238;-82
2021/03/22 01:06:18;;;;;;;8.15;2.15;;;17.50;46.90;;;;;;4989474;28;20164;-82
2021/03/22 01:08:45;;;;;;;14.38;2.45;;;17.50;46.80;;;;;;5005540;28;20210;-82
2021/03/22 01:11:16;;;;;;;9.88;2.20;;;17.50;46.70;;;;;;5023235;28;20183;-83
2021/03/22 01:13:45;;;;;;;12.07;2.00;;;17.50;46.80;;;;;;5005090;28;20209;-83
2021/03/22 01:16:12;;;;;;;16.98;2.60;;;17.50;46.80;;;;;;5004931;28;20159;-82
2021/03/22 01:18:49;;;;;;;6.28;1.73;;;17.50;46.90;;;;;;5004723;28;20201;-83
2021/03/22 01:21:29;;;;;;;12.18;2.30;;;17.50;46.90;;;;;;4988941;28;20233;-83
2021/03/22 01:23:56;;;;;;;10.45;2.25;;;17.50;46.90;;;;;;5005254;28;20159;-83
2021/03/22 01:26:32;;;;;;;12.52;2.80;;;17.50;46.90;;;;;;5004670;28;20293;-83
2021/03/22 01:28:59;;;;;;;14.48;2.17;;;17.40;46.70;;;;;;5004661;28;20199;-83
2021/03/22 01:31:27;;;;;;;15.75;2.28;;;17.50;46.60;;;;;;5005663;28;20163;-82
2021/03/22 01:33:53;;;;;;;10.80;2.28;;;17.40;46.80;;;;;;5005277;28;20180;-83
2021/03/22 01:36:39;;;;;;;12.00;2.13;;;17.40;46.70;;;;;;4972753;28;20194;-82
2021/03/22 01:39:11;;;;;;;11.02;2.25;;;17.40;46.70;;;;;;5002173;28;20195;-83
2021/03/22 01:42:07;;;;;;;9.85;1.90;;;17.40;46.80;;;;;;4988390;28;20233;-82
2021/03/22 01:44:42;;;;;;;8.65;2.10;;;17.50;46.70;;;;;;5017905;28;20186;-83
2021/03/22 01:47:17;;;;;;;9.48;2.13;;;17.40;46.70;;;;;;5004377;28;20159;-83
2021/03/22 01:50:01;;;;;;;8.98;1.80;;;17.40;46.70;;;;;;5004708;28;20159;-82
2021/03/22 01:52:28;;;;;;;12.00;1.98;;;17.40;46.70;;;;;;5022130;28;20159;-83
2021/03/22 01:54:56;;;;;;;9.27;1.92;;;17.40;46.70;;;;;;5004174;28;20710;-82
2021/03/22 01:57:27;;;;;;;8.85;1.88;;;17.40;46.70;;;;;;4972015;28;20182;-82
2021/03/22 01:59:55;;;;;;;10.85;2.38;;;17.40;46.70;;;;;;4987908;28;20178;-82
2021/03/22 02:02:22;;;;;;;10.88;1.77;;;17.40;46.80;;;;;;5003763;28;20195;-83
2021/03/22 02:04:48;;;;;;;8.20;1.83;;;17.40;46.70;;;;;;5003923;28;20156;-83
2021/03/22 02:07:23;;;;;;;11.60;1.90;;;17.40;46.80;;;;;;4987425;28;20228;-83
2021/03/22 02:09:50;;;;;;;6.47;2.00;;;17.40;46.70;;;;;;4987539;28;20201;-82
2021/03/22 02:12:17;;;;;;;11.40;1.92;;;17.40;46.70;;;;;;5021587;28;20213;-83
2021/03/22 02:14:53;;;;;;;14.20;2.25;;;17.40;46.90;;;;;;5004296;28;20163;-83
2021/03/22 02:17:38;;;;;;;10.82;1.70;;;17.30;46.90;;;;;;4985911;28;20276;-82
2021/03/22 02:20:19;;;;;;;8.15;1.98;;;17.40;46.70;;;;;;4986432;28;20241;-83
2021/03/22 02:23:17;;;;;;;9.85;1.90;;;17.40;46.90;;;;;;5003317;28;20167;-83
2021/03/22 02:26:26;;;;;;;9.27;2.00;;;17.40;46.90;;;;;;4921607;29;20226;-83
2021/03/22 02:29:22;;;;;;;8.20;2.10;;;17.40;46.70;;;;;;4866123;29;20276;-83
2021/03/22 02:32:21;;;;;;;6.85;2.22;;;17.30;46.70;;;;;;4861506;29;20279;-82
2021/03/22 02:35:19;;;;;;;7.75;2.08;;;17.40;46.70;;;;;;4865737;29;20197;-83
2021/03/22 02:37:51;;;;;;;11.27;1.95;;;17.40;46.70;;;;;;4849141;29;20235;-83
2021/03/22 02:40:54;;;;;;;11.70;2.08;;;17.30;46.90;;;;;;4834653;29;20734;-82
2021/03/22 02:43:21;;;;;;;11.27;2.40;;;17.30;46.80;;;;;;4828178;29;20186;-83
2021/03/22 02:45:47;;;;;;;10.02;2.00;;;17.40;46.70;;;;;;4812537;29;20212;-83
2021/03/22 02:48:33;;;;;;;8.13;1.88;;;17.30;46.80;;;;;;4828613;29;20602;-83
2021/03/22 02:51:20;;;;;;;10.75;1.90;;;17.30;46.80;;;;;;4798289;29;20189;-83
2021/03/22 02:54:09;;;;;;;8.10;1.70;;;17.30;47.00;;;;;;4813751;29;20198;-82
2021/03/22 02:56:46;;;;;;;9.63;2.03;;;17.30;46.80;;;;;;4828369;29;20190;-83
2021/03/22 02:59:28;;;;;;;11.40;1.98;;;17.30;46.80;;;;;;4828488;29;20589;-82
2021/03/22 03:02:02;;;;;;;8.07;2.15;;;17.30;46.90;;;;;;4834661;29;20158;-83
2021/03/22 03:04:30;;;;;;;7.82;2.03;;;17.30;47.00;;;;;;4868624;29;20184;-83
2021/03/22 03:07:06;;;;;;;8.82;1.83;;;17.30;46.70;;;;;;4920302;29;20178;-82
2021/03/22 03:09:35;;;;;;;9.38;1.77;;;17.30;46.90;;;;;;4909530;29;20250;-83
2021/03/22 03:12:22;;;;;;;6.55;2.05;;;17.30;46.80;;;;;;4893088;29;20760;-83
2021/03/22 03:14:52;;;;;;;6.95;1.65;;;17.30;46.80;;;;;;4924473;29;20202;-83
2021/03/22 03:17:19;;;;;;;8.85;2.17;;;17.30;46.80;;;;;;4957839;28;20572;-83
2021/03/22 03:19:48;;;;;;;7.68;2.10;;;17.30;46.90;;;;;;5002185;28;20172;-82
2021/03/22 03:22:15;;;;;;;11.25;2.20;;;17.30;46.70;;;;;;5020270;28;20635;-82
2021/03/22 03:24:44;;;;;;;8.38;1.80;;;17.30;46.80;;;;;;4986230;28;20156;-83
2021/03/22 03:27:12;;;;;;;4.00;1.80;;;17.30;46.80;;;;;;4982280;28;20239;-83
2021/03/22 03:29:39;;;;;;;9.52;1.85;;;17.30;46.80;;;;;;4982594;28;20164;-82
2021/03/22 03:32:09;;;;;;;8.77;1.80;;;17.30;46.90;;;;;;4982986;28;20752;-82
2021/03/22 03:34:36;;;;;;;8.85;1.65;;;17.30;46.80;;;;;;4982764;28;20682;-83
2021/03/22 03:37:05;;;;;;;11.18;2.10;;;17.30;47.00;;;;;;4982727;28;20160;-82
2021/03/22 03:39:30;;;;;;;8.90;1.55;;;17.20;46.80;;;;;;4966098;28;20200;-83
2021/03/22 03:41:56;;;;;;;11.00;1.70;;;17.20;46.90;;;;;;4982396;28;20564;-83
2021/03/22 03:44:25;;;;;;;7.47;2.20;;;17.30;46.80;;;;;;4965950;28;20164;-82
2021/03/22 03:46:52;;;;;;;5.35;1.60;;;17.20;46.80;;;;;;4982561;28;20156;-83
2021/03/22 03:49:18;;;;;;;8.70;2.17;;;17.20;46.90;;;;;;5000339;28;20160;-83
2021/03/22 03:51:45;;;;;;;9.13;1.75;;;17.20;46.80;;;;;;4966026;28;20172;-83
2021/03/22 03:54:11;;;;;;;5.18;1.48;;;17.20;46.90;;;;;;4982145;28;20160;-82
2021/03/22 03:56:41;;;;;;;9.55;1.85;;;17.20;46.90;;;;;;4966071;28;20168;-82
2021/03/22 03:59:06;;;;;;;8.55;1.73;;;17.20;46.70;;;;;;4965633;28;20191;-83
2021/03/22 04:01:33;;;;;;;8.13;1.80;;;17.20;46.80;;;;;;4982675;28;20163;-83
2021/03/22 04:03:59;;;;;;;9.40;2.00;;;17.20;46.80;;;;;;4965063;28;20161;-82
2021/03/22 04:06:29;;;;;;;6.75;1.42;;;17.20;46.90;;;;;;4966463;28;20596;-82
2021/03/22 04:08:58;;;;;;;8.02;1.60;;;17.20;46.70;;;;;;4965687;28;20195;-83
2021/03/22 04:11:35;;;;;;;9.90;1.80;;;17.20;46.90;;;;;;4981307;28;20159;-83
2021/03/22 04:14:01;;;;;;;8.50;2.05;;;17.20;46.90;;;;;;4964158;28;20168;-83
2021/03/22 04:16:28;;;;;;;7.97;2.15;;;17.20;46.90;;;;;;4964589;28;20191;-83
2021/03/22 04:18:56;;;;;;;11.65;2.17;;;17.20;46.70;;;;;;4964103;28;20195;-83
2021/03/22 04:21:26;;;;;;;6.63;1.60;;;17.20;46.80;;;;;;4964695;28;20627;-83
2021/03/22 04:23:53;;;;;;;8.48;1.63;;;17.20;46.70;;;;;;4981309;28;20188;-82
2021/03/22 04:26:20;;;;;;;7.72;1.48;;;17.20;46.80;;;;;;4983513;28;20305;-82
2021/03/22 04:28:46;;;;;;;4.95;1.25;;;17.20;46.90;;;;;;4983762;28;20242;-83
2021/03/22 04:31:15;;;;;;;4.57;1.77;;;17.20;46.90;;;;;;5000476;28;20268;-83
2021/03/22 04:33:42;;;;;;;10.65;1.70;;;17.20;46.70;;;;;;4984305;28;20670;-83
2021/03/22 04:36:09;;;;;;;6.50;1.77;;;17.20;46.80;;;;;;4984820;28;20195;-83
2021/03/22 04:38:35;;;;;;;9.77;2.05;;;17.20;46.80;;;;;;5000864;28;20245;-83
2021/03/22 04:41:01;;;;;;;6.85;2.10;;;17.20;46.80;;;;;;5004535;28;20167;-82
2021/03/22 04:43:29;;;;;;;11.40;2.03;;;17.20;46.70;;;;;;4987991;28;20230;-83
2021/03/22 04:45:54;;;;;;;6.50;1.48;;;17.20;46.70;;;;;;4988360;28;20147;-83
2021/03/22 04:48:23;;;;;;;7.07;1.60;;;17.20;46.70;;;;;;4988223;28;20642;-82
2021/03/22 04:50:51;;;;;;;7.70;1.90;;;17.20;46.80;;;;;;5005074;28;20155;-83
2021/03/22 04:53:17;;;;;;;9.82;2.10;;;17.20;46.70;;;;;;4987928;28;20199;-82
2021/03/22 04:55:43;;;;;;;8.25;1.80;;;17.20;46.80;;;;;;4988163;28;20250;-82
2021/03/22 04:58:09;;;;;;;9.52;1.73;;;17.20;46.70;;;;;;4988286;28;20222;-83
2021/03/22 05:00:39;;;;;;;5.63;1.50;;;17.20;46.40;;;;;;4988060;28;20160;-82
2021/03/22 05:03:08;;;;;;;6.80;1.50;;;17.30;46.10;;;;;;4987833;28;20156;-83
2021/03/22 05:05:34;;;;;;;5.22;1.42;;;17.30;46.70;;;;;;4971388;28;20164;-82
2021/03/22 05:08:04;;;;;;;5.65;1.88;;;17.30;45.60;;;;;;5003469;28;20159;-82
2021/03/22 05:10:35;;;;;;;5.60;1.73;;;17.30;45.00;;;;;;4972040;28;20167;-82
2021/03/22 05:13:12;;;;;;;3.30;1.50;;;17.30;43.90;;;;;;4987678;28;20163;-82
2021/03/22 05:15:38;;;;;;;5.25;1.40;;;17.40;43.10;;;;;;4987228;28;20174;-82
2021/03/22 05:18:06;;;;;;;4.18;1.20;;;17.30;43.20;;;;;;5003740;28;20728;-83
2021/03/22 05:20:38;;;;;;;7.78;1.63;;;17.40;42.90;;;;;;5021235;28;20159;-83
2021/03/22 05:23:07;;;;;;;4.22;1.77;;;17.50;43.20;;;;;;4987550;28;20155;-82
2021/03/22 05:25:34;;;;;;;4.88;1.30;;;17.50;43.10;;;;;;4986948;28;20682;-83
2021/03/22 05:28:04;;;;;;;4.38;1.20;;;17.50;42.60;;;;;;5021362;28;20160;-83
2021/03/22 05:30:29;;;;;;;5.70;1.30;;;17.40;42.90;;;;;;5003582;28;20152;-82
2021/03/22 05:33:01;;;;;;;4.18;1.25;;;17.40;42.90;;;;;;4971501;28;20182;-83
2021/03/22 05:35:28;;;;;;;5.00;1.40;;;17.40;43.60;;;;;;4970808;28;20175;-82
2021/03/22 05:37:56;;;;;;;5.70;1.60;;;17.30;43.50;;;;;;4986694;28;20191;-83
2021/03/22 05:40:26;;;;;;;5.57;1.48;;;17.30;43.60;;;;;;4987292;28;20275;-82
2021/03/22 05:43:30;;;;;;;4.60;1.25;;;17.30;43.50;;;;;;4987689;28;20624;-83
2021/03/22 05:46:03;;;;;;;5.80;1.30;;;17.30;43.10;;;;;;4989519;28;20167;-82
2021/03/22 05:48:37;;;;;;;4.35;1.25;;;17.30;43.40;;;;;;4986601;28;20190;-82
2021/03/22 05:51:32;;;;;;;7.60;1.60;;;17.30;43.40;;;;;;4970281;28;20175;-83
2021/03/22 05:54:08;;;;;;;4.32;1.17;;;17.30;42.90;;;;;;5003111;28;20156;-82
2021/03/22 05:56:41;;;;;;;4.10;1.20;;;17.30;43.10;;;;;;4986651;28;20163;-82
2021/03/22 05:59:28;;;;;;;5.45;1.17;;;17.30;43.10;;;;;;5003453;28;20187;-82
2021/03/22 06:01:55;;;;;;;3.47;1.35;;;17.30;42.80;;;;;;4971067;28;20171;-83
2021/03/22 06:04:33;;;;;;;4.75;1.33;;;17.30;42.60;;;;;;4986824;28;20242;-83
2021/03/22 06:07:00;;;;;;;3.15;1.10;;;17.30;42.60;;;;;;4987378;28;20151;-82
2021/03/22 06:09:55;;;;;;;4.10;1.30;;;17.30;42.50;;;;;;4969544;28;20179;-82
2021/03/22 06:12:43;;;;;;;4.57;1.10;;;17.30;42.40;;;;;;5001602;28;20160;-83
2021/03/22 06:15:10;;;;;;;3.97;1.10;;;17.30;42.60;;;;;;5020058;28;20160;-82
2021/03/22 06:21:11;;;;;;;3.15;0.93;;;17.40;42.20;;;;;;5022680;28;20166;-83
2021/03/22 06:23:38;;;;;;;2.95;0.90;;;17.40;41.70;;;;;;4992006;28;20164;-82
2021/03/22 06:26:31;;;;;;;2.47;1.10;;;17.40;41.60;;;;;;4987671;28;20215;-83
2021/03/22 06:29:00;;;;;;;1.73;0.90;;;17.50;41.60;;;;;;5003721;28;20246;-83
2021/03/22 06:38:53;;;;;;;2.03;0.90;;;17.30;42.10;;;;;;5020110;28;20233;-83
2021/03/22 06:41:44;;;;;;;2.80;1.10;;;17.40;41.60;;;;;;5020633;28;20159;-83
2021/03/22 06:44:44;;;;;;;3.78;1.13;;;17.40;41.70;;;;;;5002931;28;20175;-83
2021/03/22 06:47:44;;;;;;;2.20;1.05;;;17.40;41.90;;;;;;5003402;28;20179;-83
2021/03/22 06:50:36;;;;;;;4.03;1.30;;;17.40;41.80;;;;;;5003438;28;20618;-83
2021/03/22 06:53:06;;;;;;;2.80;0.98;;;17.40;41.70;;;;;;5021652;28;20166;-83
2021/03/22 06:59:26;;;;;;;2.88;1.05;;;17.40;41.60;;;;;;5022646;28;20253;-82
2021/03/22 07:01:53;;;;;;;3.65;1.02;;;17.40;41.10;;;;;;5027251;28;20152;-83
2021/03/22 07:04:29;;;;;;;4.53;1.02;;;17.40;41.40;;;;;;4992822;28;20168;-83
2021/03/22 07:07:16;;;;;;;1.88;0.90;;;17.40;41.20;;;;;;4992274;28;20167;-83
2021/03/22 07:09:53;;;;;;;3.25;0.90;;;17.40;41.30;;;;;;5025208;28;20160;-82
2021/03/22 07:12:30;;;;;;;2.63;1.10;;;17.50;41.30;;;;;;4991039;28;20190;-83
2021/03/22 07:15:16;;;;;;;5.72;1.10;;;17.40;41.40;;;;;;5005842;28;20253;-83
2021/03/22 07:17:58;;;;;;;3.05;1.05;;;17.40;41.30;;;;;;4999274;28;20266;-82
2021/03/22 07:20:37;;;;;;;5.28;1.20;;;17.40;41.20;;;;;;5024819;28;20182;-84
2021/03/22 07:23:24;;;;;;;3.53;0.98;;;17.40;41.20;;;;;;4974694;28;20187;-81
2021/03/22 07:26:35;;;;;;;1.88;1.23;;;17.40;41.20;;;;;;5008828;28;20206;-83
2021/03/22 07:29:08;;;;;;;1.67;1.00;;;17.50;41.20;;;;;;4912631;29;20178;-83
2021/03/22 07:31:48;;;;;;;2.33;0.88;;;17.50;41.20;;;;;;4897282;29;20171;-81
2021/03/22 07:34:33;;;;;;;3.40;0.90;;;17.50;41.10;;;;;;4923333;29;20205;-82
2021/03/22 07:37:26;;;;;;;1.23;0.70;;;17.50;41.10;;;;;;4927034;29;20179;-82
2021/03/22 07:40:05;;;;;;;4.43;1.38;;;17.50;41.10;;;;;;4893718;29;20291;-84
2021/03/22 07:42:54;;;;;;;3.10;1.20;;;17.50;41.10;;;;;;4906210;29;20239;-83
2021/03/22 07:45:32;;;;;;;1.63;1.08;;;17.40;41.00;;;;;;4878843;29;20266;-84
2021/03/22 07:48:14;;;;;;;3.53;1.05;;;17.50;41.00;;;;;;4889675;29;20185;-84
2021/03/22 07:51:03;;;;;;;2.33;0.90;;;17.40;41.00;;;;;;4906171;29;20175;-81
2021/03/22 07:53:52;;;;;;;1.90;0.70;;;17.50;40.80;;;;;;4906060;29;20183;-80
2021/03/22 07:56:28;;;;;;;3.05;1.33;;;17.50;40.80;;;;;;4896172;29;20207;-83
2021/03/22 07:59:20;;;;;;;2.90;1.00;;;17.50;40.50;;;;;;4928231;29;20206;-82
2021/03/22 08:02:30;;;;;;;2.72;0.98;;;17.50;40.60;;;;;;4925023;29;20235;-81
2021/03/22 08:05:27;;;;;;;4.63;1.10;;;17.60;40.50;;;;;;4955462;28;20199;-82
2021/03/22 08:08:52;;;;;;;1.52;0.68;;;17.50;40.70;;;;;;4935858;29;20193;-84
2021/03/22 08:11:50;;;;;;;2.03;1.10;;;17.50;40.80;;;;;;4895318;29;20191;-82
2021/03/22 08:14:42;;;;;;;;;;;;;;;;;;;;;
2021/03/22 08:20:54;;;;;;;1.80;0.90;;;17.60;40.20;;;;;;4921524;29;20184;-84
2021/03/22 08:24:01;;;;;;;2.45;0.95;;;17.60;40.50;;;;;;4905689;29;20166;-84
2021/03/22 08:26:34;;;;;;;4.15;0.80;;;17.60;40.30;;;;;;4914724;29;20270;-83
2021/03/22 08:29:26;;;;;;;2.10;1.10;;;17.60;40.50;;;;;;4870150;29;20179;-82
2021/03/22 08:35:15;;;;;;;4.07;0.95;;;17.60;40.30;;;;;;4884268;29;20306;-84
2021/03/22 08:38:25;;;;;;;1.50;1.00;;;17.60;40.30;;;;;;4866562;29;20172;-81
2021/03/22 08:40:54;;;;;;;1.80;0.70;;;17.70;40.20;;;;;;4866702;29;20176;-83
2021/03/22 08:44:07;;;;;;;2.00;0.93;;;17.60;40.00;;;;;;4866245;29;20185;-81
2021/03/22 08:47:14;;;;;;;0.98;0.80;;;17.70;40.20;;;;;;4885616;29;20192;-83
2021/03/22 08:53:54;;;;;;;;;;;;;;;;;;;;;
2021/03/22 08:56:49;;;;;;;2.92;0.90;;;17.70;39.70;;;;;;4845722;29;20201;-81
2021/03/22 08:59:36;;;;;;;1.85;0.70;;;17.80;39.80;;;;;;4858457;29;20222;-82
2021/03/22 09:05:37;;;;;;;1.13;0.80;;;17.80;39.90;;;;;;4840568;29;20184;-83
2021/03/22 09:12:26;;;;;;;2.45;0.88;;;17.90;39.80;;;;;;4856105;29;20270;-82
2021/03/22 09:14:59;;;;;;;3.67;0.80;;;17.90;39.70;;;;;;4864848;29;20207;-83
2021/03/22 09:17:42;;;;;;;4.13;0.70;;;17.90;39.70;;;;;;4848563;29;20253;-82
2021/03/22 09:20:15;;;;;;;2.30;1.10;;;17.90;39.80;;;;;;4847420;29;20196;-80
2021/03/22 09:22:48;;;;;;;4.05;0.90;;;17.90;39.90;;;;;;4871143;29;20174;-81
2021/03/22 09:25:54;;;;;;;1.90;0.77;;;18.00;39.90;;;;;;4906305;29;20178;-82
2021/03/22 09:28:46;;;;;;;4.47;0.85;;;18.00;39.70;;;;;;4994523;28;20204;-82
2021/03/22 09:31:46;;;;;;;5.75;0.80;;;18.00;39.80;;;;;;4963648;28;20192;-81
2021/03/22 09:34:43;;;;;;;2.97;0.70;;;18.00;39.50;;;;;;4981365;28;20176;-82
2021/03/22 09:37:59;;;;;;;5.80;1.10;;;18.00;39.60;;;;;;4980970;28;20161;-83
2021/03/22 09:40:37;;;;;;;4.32;1.00;;;18.00;39.70;;;;;;4982244;28;20192;-82
2021/03/22 09:43:38;;;;;;;4.10;1.00;;;18.00;39.80;;;;;;4996085;28;20224;-84
2021/03/22 09:46:31;;;;;;;5.35;1.10;;;18.00;39.80;;;;;;4977565;28;20156;-81
2021/03/22 09:49:21;;;;;;;6.18;0.95;;;18.10;39.60;;;;;;4978244;28;20169;-83
2021/03/22 09:51:51;;;;;;;11.00;1.67;;;18.10;39.80;;;;;;4977976;28;20367;-83
2021/03/22 09:54:50;;;;;;;4.07;0.95;;;18.10;40.00;;;;;;4960684;28;20172;-85
2021/03/22 09:57:44;;;;;;;5.38;1.10;;;18.10;40.30;;;;;;4987378;28;20176;-82
2021/03/22 10:00:32;;;;;;;4.57;0.77;;;18.10;39.90;;;;;;4918890;29;20198;-82
2021/03/22 10:03:38;;;;;;;7.40;0.93;;;18.10;39.80;;;;;;4917344;29;20171;-83
2021/03/22 10:06:12;;;;;;;3.38;0.98;;;18.10;39.90;;;;;;4919340;29;20178;-83
2021/03/22 10:09:03;;;;;;;1.58;0.70;;;18.10;39.80;;;;;;4932678;29;20159;-84
2021/03/22 10:11:36;;;;;;;5.78;1.00;;;18.10;39.80;;;;;;4933955;29;20264;-82
2021/03/22 10:14:30;;;;;;;2.67;0.80;;;18.20;39.90;;;;;;4903654;29;20183;-84
2021/03/22 10:17:21;;;;;;;2.60;0.70;;;18.20;39.80;;;;;;4920978;29;20170;-84
2021/03/22 10:19:57;;;;;;;3.28;1.00;;;18.10;39.60;;;;;;4921253;29;20190;-84
2021/03/22 10:22:32;;;;;;;3.17;0.77;;;18.10;39.70;;;;;;4919586;29;20180;-84
2021/03/22 10:25:27;;;;;;;3.30;0.73;;;18.20;39.50;;;;;;4918535;29;20182;-85
2021/03/22 10:28:05;;;;;;;2.30;0.77;;;18.10;39.50;;;;;;4918616;29;20218;-82
2021/03/22 10:30:54;;;;;;;5.18;0.70;;;18.10;39.60;;;;;;4937270;29;20263;-85
2021/03/22 10:33:21;;;;;;;2.50;0.70;;;18.00;39.60;;;;;;4934547;29;20194;-83
2021/03/22 10:35:58;;;;;;;2.40;0.70;;;18.10;39.40;;;;;;4933742;28;20167;-85
2021/03/22 10:38:33;;;;;;;5.30;1.10;;;18.20;39.40;;;;;;4978127;28;20195;-85
2021/03/22 10:44:39;;;;;;;1.75;0.70;;;18.20;39.40;;;;;;5009308;28;20163;-85
2021/03/22 10:47:29;;;;;;;1.45;0.70;;;18.20;39.40;;;;;;4976231;28;20179;-85
2021/03/22 10:50:22;;;;;;;2.47;0.70;;;18.20;39.30;;;;;;5008345;28;20171;-85
2021/03/22 10:53:08;;;;;;;2.35;0.82;;;18.20;39.30;;;;;;4974978;28;20536;-85
2021/03/22 10:55:36;;;;;;;1.90;0.70;;;18.10;39.30;;;;;;4976010;28;20160;-85
2021/03/22 10:58:44;;;;;;;;;;;;;;;;;;;;;
2021/03/22 11:01:37;;;;;;;6.93;0.88;;;18.20;39.30;;;;;;4993155;28;20254;-85
2021/03/22 11:04:15;;;;;;;2.08;0.70;;;18.20;39.20;;;;;;4974083;28;20259;-84
2021/03/22 11:07:15;;;;;;;2.35;0.80;;;18.20;39.20;;;;;;4955348;28;20163;-84
2021/03/22 11:10:10;;;;;;;2.33;0.90;;;18.20;39.20;;;;;;4977716;28;20184;-84
2021/03/22 11:12:40;;;;;;;3.58;1.00;;;18.20;39.20;;;;;;4995000;28;20172;-83
2021/03/22 11:18:28;;;;;;;4.13;1.13;;;18.30;39.20;;;;;;5008681;28;20199;-83
2021/03/22 11:20:58;;;;;;;3.53;1.00;;;18.30;39.70;;;;;;4976550;28;20179;-83
2021/03/22 11:23:44;;;;;;;2.53;0.80;;;18.20;39.90;;;;;;4974670;28;20224;-83
2021/03/22 11:26:30;;;;;;;5.13;1.00;;;18.30;39.60;;;;;;4981715;28;20238;-82
2021/03/22 11:29:14;;;;;;;1.23;0.60;;;18.20;39.60;;;;;;4993987;28;20185;-84
2021/03/22 11:38:55;;;;;;;1.55;0.70;;;18.20;39.20;;;;;;5026712;28;20202;-82
2021/03/22 11:41:37;;;;;;;3.50;0.70;;;18.20;39.20;;;;;;5026311;28;20162;-83
2021/03/22 11:44:25;;;;;;;2.28;0.80;;;18.20;39.20;;;;;;4992939;28;20238;-84
2021/03/22 11:51:03;;;;;;;2.10;0.85;;;18.20;39.10;;;;;;5027127;28;20242;-84
2021/03/22 13:30:26;;;;;;;1.58;0.85;;;18.30;38.50;;;;;;5836895;23;20226;-81
2021/03/22 15:08:37;;;;;;;1.55;0.60;;;18.20;38.50;;;;;;4911537;29;20210;-81
2021/03/22 15:11:06;;;;;;;1.25;0.70;;;18.20;38.70;;;;;;4910994;29;20195;-82
2021/03/22 15:20:42;;;;;;;1.10;0.50;;;18.20;38.70;;;;;;4853667;29;20196;-83
2021/03/22 15:57:44;;;;;;;1.73;0.60;;;18.30;38.50;;;;;;5033017;28;20158;-82
2021/03/22 16:00:30;;;;;;;0.85;0.40;;;18.40;38.40;;;;;;5331256;23;20214;-82
2021/03/22 16:17:41;;;;;;;1.95;0.60;;;18.10;39.20;;;;;;5112289;23;20238;-82
2021/03/22 16:20:33;;;;;;;4.03;0.70;;;18.20;38.90;;;;;;5018277;28;20226;-82
2021/03/22 16:23:11;;;;;;;1.98;0.50;;;18.20;39.00;;;;;;5015686;28;20174;-82
2021/03/22 16:25:54;;;;;;;0.85;0.52;;;18.20;39.20;;;;;;4988864;28;20242;-83
2021/03/22 16:28:47;;;;;;;2.33;0.60;;;18.20;39.20;;;;;;4990333;28;20187;-83
2021/03/22 16:31:28;;;;;;;2.58;0.75;;;18.20;39.10;;;;;;5013812;28;20170;-82
2021/03/22 16:34:06;;;;;;;1.95;0.60;;;18.20;39.20;;;;;;5015893;28;20155;-82
2021/03/22 16:37:04;;;;;;;2.15;0.50;;;18.30;39.10;;;;;;5018690;28;20176;-81
2021/03/22 16:39:37;;;;;;;1.25;0.60;;;18.40;39.10;;;;;;5055307;28;20183;-83
2021/03/22 16:42:20;;;;;;;1.58;0.60;;;18.30;39.00;;;;;;5005805;28;20231;-83
2021/03/22 16:44:49;;;;;;;9.75;1.45;;;18.40;39.10;;;;;;5036775;28;20163;-81
2021/03/22 16:47:42;;;;;;;11.05;0.93;;;18.40;39.20;;;;;;5035741;28;20207;-81
2021/03/22 16:50:08;;;;;;;7.65;1.20;;;18.40;39.40;;;;;;5016178;28;20167;-81
2021/03/22 16:52:36;;;;;;;7.93;1.13;;;18.30;39.40;;;;;;5008841;28;20205;-83
2021/03/22 16:55:04;;;;;;;9.18;1.08;;;18.40;39.60;;;;;;5006893;28;20166;-83
2021/03/22 16:57:31;;;;;;;5.97;0.88;;;18.30;39.70;;;;;;4997677;28;20173;-84
2021/03/22 17:00:03;;;;;;;8.85;0.88;;;18.30;39.90;;;;;;5017224;28;20195;-84
2021/03/22 17:02:30;;;;;;;13.05;1.50;;;18.30;39.90;;;;;;5027651;28;20170;-84
2021/03/22 17:04:59;;;;;;;7.07;0.80;;;18.30;40.10;;;;;;5009772;28;20270;-82
2021/03/22 17:07:26;;;;;;;8.40;0.93;;;18.30;40.10;;;;;;5010658;28;20187;-83
2021/03/22 17:10:46;;;;;;;8.00;1.00;;;18.40;40.00;;;;;;5028431;28;20179;-83
2021/03/22 17:14:13;;;;;;;;;;;;;;;;;;;;;
2021/03/22 17:16:55;;;;;;;6.75;0.90;;;18.40;39.90;;;;;;5000657;28;20262;-83
2021/03/22 17:19:41;;;;;;;;;;;;;;;;;;;;;
2021/03/22 17:22:58;;;;;;;10.80;1.08;;;18.50;39.90;;;;;;5032142;28;20199;-82
2021/03/22 17:25:56;;;;;;;13.60;1.55;;;18.60;39.80;;;;;;5016637;28;20234;-83
2021/03/22 17:28:23;;;;;;;7.60;0.80;;;18.60;39.80;;;;;;5032123;28;20191;-81
2021/03/22 17:31:14;;;;;;;12.65;1.17;;;18.60;39.50;;;;;;4994664;28;20163;-82
2021/03/22 17:33:52;;;;;;;11.95;1.45;;;18.60;39.70;;;;;;5025537;28;20170;-79
2021/03/22 17:36:21;;;;;;;11.15;1.42;;;18.60;39.80;;;;;;5024609;28;20193;-83
2021/03/22 17:39:18;;;;;;;;;;;;;;;;;;;;;
2021/03/22 17:41:57;;;;;;;;;;;;;;;;;;;;;
2021/03/22 17:44:46;;;;;;;4.10;1.10;;;18.60;40.10;;;;;;4964670;28;20243;-81
2021/03/22 17:47:20;;;;;;;15.50;1.45;;;18.60;40.10;;;;;;4944362;28;20198;-82
2021/03/22 17:49:47;;;;;;;6.75;1.05;;;18.70;40.30;;;;;;4974719;28;20180;-81
2021/03/22 17:52:21;;;;;;;12.10;1.50;;;18.70;40.30;;;;;;4958783;28;20187;-80
2021/03/22 17:55:02;;;;;;;;;;;;;;;;;;;;;
2021/03/22 18:01:32;;;;;;;15.07;1.42;;;18.60;40.50;;;;;;4884513;29;20203;-84
2021/03/22 18:11:16;;;;;;;;;;;;;;;;;;;;;
2021/03/22 18:13:32;;;;;;;;;;;;;;;;;;;;;
2021/03/22 18:16:30;;;;;;;;;;;;;;;;;;;;;
2021/03/22 18:19:25;;;;;;;;;;;;;;;;;;;;;
2021/03/22 18:23:13;;;;;;;;;;;;;;;;;;;;;
2021/03/22 18:26:25;;;;;;;14.98;1.63;;;18.60;41.20;;;;;;4746535;30;20661;-81
2021/03/22 18:35:39;;;;;;;;;;;;;;;;;;;;;
2021/03/22 18:42:09;;;;;;;;;;;;;;;;;;;;;
2021/03/22 18:45:29;;;;;;;;;;;;;;;;;;;;;
2021/03/22 18:48:05;;;;;;;;;;;;;;;;;;;;;
2021/03/22 18:50:31;;;;;;;9.50;1.27;;;18.80;41.30;;;;;;4865334;29;20711;-83
2021/03/22 18:53:14;;;;;;;13.23;2.00;;;18.80;41.20;;;;;;4850419;29;20220;-85
2021/03/22 18:56:26;;;;;;;9.23;1.60;;;18.80;41.30;;;;;;4869075;29;20316;-86
2021/03/22 18:59:02;;;;;;;10.90;1.70;;;18.70;41.60;;;;;;4849906;29;20874;-84
2021/03/22 19:04:49;;;;;;;11.95;1.55;;;18.70;41.60;;;;;;4841194;29;20189;-83
2021/03/22 19:07:15;;;;;;;8.60;1.45;;;18.60;41.80;;;;;;4813710;29;20181;-81
2021/03/22 19:09:54;;;;;;;16.05;1.85;;;18.60;42.40;;;;;;4814761;29;20270;-83
2021/03/22 19:12:55;;;;;;;;;;;;;;;;;;;;;
2021/03/22 19:15:26;;;;;;;14.10;1.70;;;18.50;42.60;;;;;;4845905;29;20332;-81
2021/03/22 19:21:27;;;;;;;11.73;1.77;;;18.40;42.50;;;;;;4922124;29;20190;-80
2021/03/22 19:24:27;;;;;;;10.85;1.23;;;18.50;42.70;;;;;;4904471;29;20186;-82
2021/03/22 19:26:54;;;;;;;14.57;1.40;;;18.40;42.70;;;;;;4930518;29;20186;-83
2021/03/22 19:29:24;;;;;;;10.32;1.23;;;18.40;42.80;;;;;;4923544;29;20282;-77
2021/03/22 19:31:53;;;;;;;10.05;1.45;;;18.40;42.90;;;;;;4925008;29;20229;-81